24. September 2022

Uhrzeit Code Wetter Temp. Sichtweite Wolkendecke Wind METAR/SPECI
23:25
L
6 °C 450 m - 310° 310° 2 kt METAR EHGG 242125Z AUTO 31002KT 0450 R05/1100U FG NCD 06/06 Q1015
22:55
V
8 °C 10 km+ - 340° 340° 3 kt METAR EHGG 242055Z AUTO 34003KT 320V020 9999 NCD 08/08 Q1015 NOSIG
22:25
V
9 °C 10 km+ - 330° 330° 4 kt METAR EHGG 242025Z AUTO 33004KT 9999 NCD 09/08 Q1015 NOSIG
21:55
V
10 °C 10 km+ - 330° 330° 5 kt METAR EHGG 241955Z AUTO 33005KT 9999 FEW027 10/08 Q1015 NOSIG
21:25
V
11 °C 10 km+ - 340° 340° 5 kt METAR EHGG 241925Z AUTO 34005KT 9999 NCD 11/09 Q1015 NOSIG
20:55
V
12 °C 10 km+ - 350° 350° 5 kt METAR EHGG 241855Z AUTO 35005KT 310V010 9999 NCD 12/09 Q1014 NOSIG
20:25
V
13 °C 10 km+ - 350° 350° 6 kt METAR EHGG 241825Z AUTO 35006KT 320V030 9999 NSC 13/10 Q1014 NOSIG
19:55
V
13 °C 10 km+ - 350° 350° 7 kt METAR EHGG 241755Z AUTO 35007KT 310V020 9999 NSC 13/10 Q1014 NOSIG
19:25
V
13 °C 10 km+ 4.900 ft 350° 350° 5 kt METAR EHGG 241725Z AUTO 35005KT 310V030 9999 FEW026 OVC049 13/11 Q1014 NOSIG
18:55
V
13 °C 10 km+ 4.700 ft 020° 020° 3 kt METAR EHGG 241655Z AUTO 02003KT 350V050 9999 SCT043 OVC047 13/12 Q1014 NOSIG
18:25
V
13 °C 10 km+ 3.900 ft 360° 360° 4 kt METAR EHGG 241625Z AUTO 36004KT 320V040 9999 FEW022 OVC039 13/12 Q1013 REDZ NOSIG
17:55
I
13 °C 4,2 km 2.200 ft 010° 010° 4 kt METAR EHGG 241555Z AUTO 01004KT 330V060 4200 -RA FEW011 SCT017 OVC022 13/12 Q1013 REDZRA TEMPO 4000 DZRA BKN014
17:25
M
13 °C 6 km 2.100 ft 010° 010° 7 kt METAR EHGG 241525Z AUTO 01007KT 330V050 6000 -SHRA +DZ FEW012/// SCT016/// BKN021/// 13/11 Q1013 RERADZ TEMPO 4000 DZRA BKN014
16:55
M
13 °C 10 km+ 2.800 ft 010° 010° 7 kt METAR EHGG 241455Z AUTO 01007KT 320V050 9999 SCT024 OVC028 13/11 Q1013 NOSIG
16:25
M
13 °C 10 km+ 1.300 ft 020° 020° 8 kt METAR EHGG 241425Z AUTO 02008KT 340V060 9999 FEW006 BKN013 BKN015 13/12 Q1013 REDZ TEMPO 7000 DZRA BKN013
15:55
M
14 °C 9 km 2.800 ft 350° 350° 8 kt METAR EHGG 241355Z AUTO 35008KT 310V020 9000 -DZ OVC028 14/12 Q1013 REDZ TEMPO 4000 DZRA BKN013
15:25
M
14 °C 10 km+ 1.400 ft 360° 360° 9 kt METAR EHGG 241325Z AUTO 36009KT 310V040 9999 -RA FEW006/// BKN014/// OVC016/// 14/11 Q1013 BECMG BKN016 TEMPO 7000 RADZ
14:55
M
14 °C 10 km+ 1.500 ft 010° 010° 8 kt METAR EHGG 241255Z AUTO 01008KT 320V050 9999 -RA OVC015 14/11 Q1013 NOSIG
14:25
M
14 °C 10 km+ 1.500 ft 360° 360° 6 kt METAR EHGG 241225Z AUTO 36006KT 310V040 9999 BKN015 OVC020 14/12 Q1013 NOSIG
13:55
M
14 °C 10 km+ 1.600 ft 360° 360° 7 kt METAR EHGG 241155Z AUTO 36007KT 310V040 9999 FEW014 BKN016 OVC019 14/11 Q1013 NOSIG
13:25
M
15 °C 10 km+ 1.500 ft 360° 360° 8 kt METAR EHGG 241125Z AUTO 36008KT 330V050 9999 BKN015 OVC019 15/11 Q1013 NOSIG
12:55
M
15 °C 10 km+ 2.000 ft 350° 350° 9 kt METAR EHGG 241055Z AUTO 35009KT 300V040 9999 FEW016 OVC020 15/11 Q1012 NOSIG
12:25
M
14 °C 10 km+ 2.300 ft 360° 360° 10 kt METAR EHGG 241025Z AUTO 36010KT 330V050 9999 SCT019 OVC023 14/11 Q1012 NOSIG
11:55
M
14 °C 10 km+ 1.500 ft 360° 360° 11 kt METAR EHGG 240955Z AUTO 36011KT 320V050 9999 SCT012 BKN015 OVC018 14/12 Q1012 NOSIG
11:25
M
14 °C 10 km+ 1.400 ft 360° 360° 8 kt METAR EHGG 240925Z AUTO 36008KT 320V030 9999 BKN014 OVC016 14/12 Q1012 BECMG BKN030
10:55
M
14 °C 10 km+ 1.400 ft 350° 350° 7 kt METAR EHGG 240855Z AUTO 35007KT 310V040 9999 SCT012 BKN014 BKN017 14/12 Q1012 NOSIG
10:25
M
14 °C 10 km+ 2.000 ft 350° 350° 7 kt METAR EHGG 240825Z AUTO 35007KT 320V030 9999 FEW014 OVC020 14/11 Q1012 NOSIG
09:55
M
14 °C 10 km+ 1.500 ft 350° 350° 8 kt METAR EHGG 240755Z AUTO 35008KT 310V030 9999 FEW013 BKN015 OVC019 14/12 Q1012 NOSIG
09:25
M
14 °C 10 km+ 1.500 ft 350° 350° 8 kt METAR EHGG 240725Z AUTO 35008KT 310V040 9999 FEW013 BKN015 OVC038 14/12 Q1011 NOSIG
08:55
V
14 °C 10 km+ 3.900 ft 360° 360° 7 kt METAR EHGG 240655Z AUTO 36007KT 320V030 9999 BKN039 14/12 Q1011 NOSIG
08:25
M
13 °C 10 km+ 1.400 ft 350° 350° 3 kt METAR EHGG 240625Z AUTO 35003KT 310V050 9999 FEW010 BKN014 OVC016 13/12 Q1011 BECMG BKN030
07:55
M
13 °C 10 km+ 1.700 ft 020° 020° 5 kt METAR EHGG 240555Z AUTO 02005KT 340V060 9999 SCT011 SCT014 OVC017 13/12 Q1011 BECMG 9999
07:25
M
13 °C 6 km 1.000 ft 340° 340° 3 kt METAR EHGG 240525Z AUTO 34003KT 300V030 6000 FEW009 OVC010 13/13 Q1011 BECMG 9999 NSW SCT020
06:55
I
13 °C 2 km 600 ft Var Var 2 kt METAR EHGG 240455Z AUTO VRB02KT 2000 BR SCT005 BKN006 BKN008 FEW015CB 13/13 Q1011 REDZ BECMG 9999 NSW SCT020
06:25
L
13 °C 1,3 km 400 ft 200° 200° 3 kt METAR EHGG 240425Z AUTO 20003KT 170V230 1300 R23/1900N RA SCT003 BKN004 BKN006 FEW015CB 13/13 Q1011 BECMG 9999 NSW SCT020
05:55
L
13 °C 1,4 km 300 ft 210° 210° 2 kt METAR EHGG 240355Z AUTO 21002KT 1400 R23/1900N RA BKN003 BKN004 FEW015CB 13/13 Q1011
05:25
I
13 °C 1,9 km 500 ft 260° 260° 3 kt METAR EHGG 240325Z AUTO 26003KT 1900 -SHRA SCT004 BKN005 BKN010 FEW015CB 13/13 Q1011 RERADZ
04:55
I
13 °C 2,6 km 1.100 ft 220° 220° 6 kt METAR EHGG 240255Z AUTO 22006KT 2600 -RADZ BKN011 FEW015CB 13/13 Q1011
04:25
I
13 °C 2,6 km 1.200 ft 210° 210° 6 kt METAR EHGG 240225Z AUTO 21006KT 2600 BR FEW009 OVC012 13/13 Q1011
03:55
I
13 °C 2,5 km 1.000 ft 220° 220° 5 kt METAR EHGG 240155Z AUTO 22005KT 2500 BR OVC010 13/12 Q1011
03:25
I
13 °C 2,5 km 1.200 ft 210° 210° 6 kt METAR EHGG 240125Z AUTO 21006KT 2500 DZ OVC012 13/12 Q1011
02:55
I
13 °C 3,2 km 1.100 ft 210° 210° 6 kt METAR EHGG 240055Z AUTO 21006KT 3200 -DZ OVC011 13/12 Q1011 REDZ
02:25
I
13 °C 3,9 km 3.700 ft 220° 220° 6 kt METAR EHGG 240025Z AUTO 22006KT 3900 DZ BKN037/// OVC041/// 13/12 Q1011
01:55
M
13 °C 5 km 3.500 ft 210° 210° 6 kt METAR EHGG 232355Z AUTO 21006KT 5000 SCT031 BKN035 OVC040 13/12 Q1012
01:25
M
13 °C 6 km 3.800 ft 210° 210° 5 kt METAR EHGG 232325Z AUTO 21005KT 6000 OVC038 13/12 Q1012
00:55
M
13 °C 7 km 3.500 ft 200° 200° 5 kt METAR EHGG 232255Z AUTO 20005KT 170V240 7000 FEW013 OVC035 13/11 Q1012
00:25
M
13 °C 8 km 2.900 ft 200° 200° 5 kt METAR EHGG 232225Z AUTO 20005KT 8000 FEW017/// BKN029/// OVC036/// 13/11 Q1012

23. September 2022

Uhrzeit Code Wetter Temp. Sichtweite Wolkendecke Wind METAR/SPECI
23:55
M
13 °C 9 km 2.600 ft 190° 190° 5 kt METAR EHGG 232155Z AUTO 19005KT 9000 SCT020 BKN026 BKN041 13/11 Q1012
23:25
V
13 °C 9 km - 180° 180° 5 kt METAR EHGG 232125Z AUTO 18005KT 150V210 9000 FEW016 13/11 Q1012
22:55
V
13 °C 10 km+ - 170° 170° 5 kt METAR EHGG 232055Z AUTO 17005KT 9999 NSC 13/11 Q1012
22:25
M
13 °C 10 km+ 1.900 ft 170° 170° 4 kt METAR EHGG 232025Z AUTO 17004KT 9999 BKN019 OVC023 13/12 Q1012 TEMPO 7000 RADZ
21:55
V
13 °C 10 km+ 4.700 ft 170° 170° 5 kt METAR EHGG 231955Z AUTO 17005KT 140V200 9999 DZ FEW019 SCT027 BKN047 13/12 Q1013 TEMPO 7000 RADZ
21:25
M
14 °C 10 km+ 2.200 ft 170° 170° 4 kt METAR EHGG 231925Z AUTO 17004KT 130V190 9999 BKN022 OVC026 14/12 Q1013 TEMPO 7000 RADZ
20:55
V
14 °C 10 km+ - 160° 160° 4 kt METAR EHGG 231855Z AUTO 16004KT 130V190 9999 DZ FEW030 14/12 Q1013 TEMPO 7000 RADZ
20:25
V
14 °C 10 km+ 3.900 ft 160° 160° 3 kt METAR EHGG 231825Z AUTO 16003KT 130V190 9999 DZ FEW034 OVC039 14/12 Q1013 TEMPO 7000 RADZ
19:55
V
14 °C 10 km+ - 140° 140° 3 kt METAR EHGG 231755Z AUTO 14003KT 100V190 9999 SCT044 14/12 Q1013 TEMPO 7000 RADZ
19:25
V
14 °C 10 km+ - 150° 150° 4 kt METAR EHGG 231725Z AUTO 15004KT 9999 FEW039 14/12 Q1013 REDZ TEMPO 7000 RADZ
18:55
V
14 °C 10 km+ - 170° 170° 3 kt METAR EHGG 231655Z AUTO 17003KT 140V200 9999 -DZ NSC 14/12 Q1013 REDZ TEMPO 7000 RADZ
18:25
V
14 °C 10 km+ 3.500 ft 160° 160° 3 kt METAR EHGG 231625Z AUTO 16003KT 9999 DZRA OVC035 14/12 Q1013 TEMPO 7000 RADZ
17:55
V
14 °C 10 km+ 3.500 ft 130° 130° 3 kt METAR EHGG 231555Z AUTO 13003KT 100V160 9999 -DZ OVC035 14/12 Q1013 TEMPO 7000 RADZ
17:25
V
15 °C 10 km+ - 180° 180° 3 kt METAR EHGG 231525Z AUTO 18003KT 130V220 9999 NSC 15/12 Q1013 TEMPO 7000 RADZ
16:55
V
15 °C 10 km+ 3.600 ft 180° 180° 3 kt METAR EHGG 231455Z AUTO 18003KT 9999 DZ BKN036 15/12 Q1014 NOSIG
16:25
V
15 °C 10 km+ 4.100 ft 190° 190° 3 kt METAR EHGG 231425Z AUTO 19003KT 160V220 9999 DZ OVC041 15/12 Q1014 NOSIG
15:55
V
14 °C 10 km+ 4.400 ft 210° 210° 6 kt METAR EHGG 231355Z AUTO 21006KT 180V240 9999 DZRA OVC044 14/11 Q1014 NOSIG
15:25
V
15 °C 10 km+ - 210° 210° 7 kt METAR EHGG 231325Z AUTO 21007KT 9999 -DZRA NSC 15/11 Q1014 NOSIG
14:55
V
16 °C 10 km+ - 200° 200° 7 kt METAR EHGG 231255Z AUTO 20007KT 180V240 9999 NSC 16/11 Q1014 REDZ NOSIG
14:25
V
15 °C 10 km+ - 200° 200° 6 kt METAR EHGG 231225Z AUTO 20006KT 170V230 9999 -RADZ NSC 15/10 Q1015 NOSIG
13:55
V
15 °C 10 km+ - 200° 200° 6 kt METAR EHGG 231155Z AUTO 20006KT 160V230 9999 -DZ NSC 15/10 Q1015 NOSIG
13:25
V
15 °C 10 km+ - 190° 190° 5 kt METAR EHGG 231125Z AUTO 19005KT 150V220 9999 NSC 15/10 Q1015 NOSIG
12:55
V
15 °C 10 km+ - 190° 190° 6 kt METAR EHGG 231055Z AUTO 19006KT 160V230 9999 NSC 15/09 Q1015 NOSIG
12:25
V
15 °C 10 km+ - 200° 200° 5 kt METAR EHGG 231025Z AUTO 20005KT 130V230 9999 NSC 15/09 Q1015 NOSIG
11:55
V
14 °C 10 km+ - 180° 180° 4 kt METAR EHGG 230955Z AUTO 18004KT 150V220 9999 NSC 14/09 Q1015 NOSIG
11:25
V
14 °C 10 km+ - 170° 170° 4 kt METAR EHGG 230925Z AUTO 17004KT 140V210 9999 NSC 14/09 Q1015 NOSIG
10:55
V
13 °C 10 km+ - 160° 160° 4 kt METAR EHGG 230855Z AUTO 16004KT 120V210 9999 NSC 13/09 Q1015 NOSIG
10:25
V
12 °C 10 km+ - 160° 160° 3 kt METAR EHGG 230825Z AUTO 16003KT 130V210 9999 NSC 12/09 Q1015 NOSIG
09:55
V
11 °C 10 km+ - 170° 170° 4 kt METAR EHGG 230755Z AUTO 17004KT 130V200 9999 NSC 11/08 Q1015 NOSIG
09:25
V
10 °C 10 km+ - 170° 170° 3 kt METAR EHGG 230725Z AUTO 17003KT 130V200 9999 NSC 10/08 Q1016 NOSIG
08:55
V
10 °C 10 km+ - 180° 180° 3 kt METAR EHGG 230655Z AUTO 18003KT 9999 NSC 10/07 Q1016 NOSIG
08:25
V
9 °C 10 km+ - 160° 160° 3 kt METAR EHGG 230625Z AUTO 16003KT 130V200 9999 NSC 09/07 Q1015 NOSIG
07:55
V
8 °C 10 km+ - Var Var 2 kt METAR EHGG 230555Z AUTO VRB02KT 9999 NSC 08/06 Q1015 NOSIG
07:25
V
8 °C 10 km+ - 160° 160° 3 kt METAR EHGG 230525Z AUTO 16003KT 130V200 9999 NSC 08/06 Q1016 NOSIG
06:55
V
6 °C 10 km+ - Var Var 2 kt METAR EHGG 230455Z AUTO VRB02KT 9999 NSC 06/05 Q1016 NOSIG
06:25
V
6 °C 10 km+ - Var Var 2 kt METAR EHGG 230425Z AUTO VRB02KT 9999 NSC 06/05 Q1016
05:55
V
6 °C 10 km+ - Var Var 1 kt METAR EHGG 230355Z AUTO VRB01KT 9999 NSC 06/05 Q1016
05:25
V
6 °C 10 km+ - Var Var 1 kt METAR EHGG 230325Z AUTO VRB01KT 9999 NSC 06/05 Q1016
04:55
V
7 °C 10 km+ - Var Var 1 kt METAR EHGG 230255Z AUTO VRB01KT 9999 NSC 07/05 Q1016
04:25
V
8 °C 10 km+ - Var Var 1 kt METAR EHGG 230225Z AUTO VRB01KT 9999 NSC 08/06 Q1017
03:55
V
8 °C 10 km+ - Var Var 1 kt METAR EHGG 230155Z AUTO VRB01KT 9999 NSC 08/06 Q1017
03:25
V
8 °C 10 km+ - Var Var 2 kt METAR EHGG 230125Z AUTO VRB02KT 9999 NSC 08/06 Q1017
02:55
V
7 °C 10 km+ - Var Var 1 kt METAR EHGG 230055Z AUTO VRB01KT 9999 NSC 07/06 Q1017
02:25
V
8 °C 10 km+ - Var Var 2 kt METAR EHGG 230025Z AUTO VRB02KT 9999 NSC 08/06 Q1017
01:55
V
9 °C 10 km+ - 150° 150° 3 kt METAR EHGG 222355Z AUTO 15003KT 130V220 9999 NSC 09/06 Q1018
01:25
V
9 °C 10 km+ - 160° 160° 3 kt METAR EHGG 222325Z AUTO 16003KT 9999 NSC 09/06 Q1018
00:55
V
10 °C 10 km+ - 150° 150° 4 kt METAR EHGG 222255Z AUTO 15004KT 9999 NSC 10/07 Q1018
00:25
V
8 °C 10 km+ - Var Var 2 kt METAR EHGG 222225Z AUTO VRB02KT 9999 NSC 08/07 Q1018

22. September 2022

Uhrzeit Code Wetter Temp. Sichtweite Wolkendecke Wind METAR/SPECI
23:55
V
8 °C 10 km+ - Var Var 1 kt METAR EHGG 222155Z AUTO VRB01KT 9999 NSC 08/07 Q1019
23:25
V
8 °C 10 km+ - 130° 130° 1 kt METAR EHGG 222125Z AUTO 13001KT 9999 NSC 08/07 Q1019
22:55
V
8 °C 10 km+ - Var Var 1 kt METAR EHGG 222055Z AUTO VRB01KT 9999 NSC 08/07 Q1019
22:25
V
8 °C 10 km+ - Var Var 2 kt METAR EHGG 222025Z AUTO VRB02KT 9999 NSC 08/07 Q1019 NOSIG
21:55
V
7 °C 10 km+ - 130° 130° 2 kt METAR EHGG 221955Z AUTO 13002KT 9999 NSC 07/07 Q1019 NOSIG
21:25
V
8 °C 10 km+ - 130° 130° 2 kt METAR EHGG 221925Z AUTO 13002KT 9999 NSC 08/07 Q1019 NOSIG
20:55
V
10 °C 10 km+ - 120° 120° 3 kt METAR EHGG 221855Z AUTO 12003KT 9999 NSC 10/08 Q1019 NOSIG
20:25
V
9 °C 10 km+ - 110° 110° 2 kt METAR EHGG 221825Z AUTO 11002KT 9999 NSC 09/08 Q1019 NOSIG
19:55
V
11 °C 10 km+ - 110° 110° 2 kt METAR EHGG 221755Z AUTO 11002KT 9999 NSC 11/08 Q1020 NOSIG
19:25
V
13 °C 10 km+ - 130° 130° 2 kt METAR EHGG 221725Z AUTO 13002KT 9999 NSC 13/09 Q1020 NOSIG
18:55
V
16 °C 10 km+ - 150° 150° 2 kt METAR EHGG 221655Z AUTO 15002KT 9999 NSC 16/08 Q1020 NOSIG
18:25
V
16 °C 10 km+ - 170° 170° 4 kt METAR EHGG 221625Z AUTO 17004KT 140V200 9999 NSC 16/07 Q1020 NOSIG
17:55
V
17 °C 10 km+ - 180° 180° 5 kt METAR EHGG 221555Z AUTO 18005KT 140V250 9999 FEW047 17/07 Q1020 NOSIG
17:25
V
17 °C 10 km+ - 170° 170° 5 kt METAR EHGG 221525Z AUTO 17005KT 130V220 9999 NSC 17/07 Q1020 NOSIG
16:55
V
17 °C 10 km+ - 170° 170° 7 kt METAR EHGG 221455Z AUTO 17007KT 130V220 9999 NSC 17/07 Q1020 NOSIG
Ältere Daten

Wir und Dritte verfolgen dein Internetverhalten auf unserer Website mit Cookies. Wenn du fortfährst, gehen wir davon aus, dass du mit unserer Cookie-Richtlinie einverstanden bist. Mehr erfahren